sensor_id;sensor_type;location;lat;lon;timestamp;pressure;altitude;pressure_sealevel;temperature;humidity
59417;BME280;45222;52.458;20.914;2023-04-16T00:03:22;100617.50;;;7.70;85.63
59417;BME280;45222;52.458;20.914;2023-04-16T00:07:07;100622.91;;;7.66;85.65
59417;BME280;45222;52.458;20.914;2023-04-16T00:10:53;100624.90;;;7.65;85.75
59417;BME280;45222;52.458;20.914;2023-04-16T00:14:38;100624.54;;;7.65;86.04
59417;BME280;45222;52.458;20.914;2023-04-16T00:18:23;100622.00;;;7.67;86.08
59417;BME280;45222;52.458;20.914;2023-04-16T00:22:08;100623.73;;;7.68;86.02
59417;BME280;45222;52.458;20.914;2023-04-16T00:25:53;100621.81;;;7.68;85.97
59417;BME280;45222;52.458;20.914;2023-04-16T00:29:40;100621.66;;;7.67;85.95
59417;BME280;45222;52.458;20.914;2023-04-16T00:33:25;100625.98;;;7.65;86.02
59417;BME280;45222;52.458;20.914;2023-04-16T00:37:10;100627.35;;;7.61;86.27
59417;BME280;45222;52.458;20.914;2023-04-16T00:40:56;100625.89;;;7.57;86.34
59417;BME280;45222;52.458;20.914;2023-04-16T00:44:42;100628.48;;;7.53;86.43
59417;BME280;45222;52.458;20.914;2023-04-16T00:48:27;100632.08;;;7.51;86.49
59417;BME280;45222;52.458;20.914;2023-04-16T00:52:12;100629.75;;;7.52;86.62
59417;BME280;45222;52.458;20.914;2023-04-16T00:55:57;100629.23;;;7.51;86.77
59417;BME280;45222;52.458;20.914;2023-04-16T00:59:42;100635.70;;;7.54;86.96
59417;BME280;45222;52.458;20.914;2023-04-16T01:03:36;100638.97;;;7.57;86.93
59417;BME280;45222;52.458;20.914;2023-04-16T01:07:21;100641.55;;;7.54;87.04
59417;BME280;45222;52.458;20.914;2023-04-16T01:11:07;100640.11;;;7.54;87.05
59417;BME280;45222;52.458;20.914;2023-04-16T01:14:52;100650.02;;;7.55;87.39
59417;BME280;45222;52.458;20.914;2023-04-16T01:18:38;100647.45;;;7.52;87.83
59417;BME280;45222;52.458;20.914;2023-04-16T01:22:23;100645.64;;;7.47;87.94
59417;BME280;45222;52.458;20.914;2023-04-16T01:26:08;100652.30;;;7.43;88.14
59417;BME280;45222;52.458;20.914;2023-04-16T01:29:53;100652.20;;;7.41;88.18
59417;BME280;45222;52.458;20.914;2023-04-16T01:37:34;100651.29;;;7.36;88.56
59417;BME280;45222;52.458;20.914;2023-04-16T01:41:19;100650.95;;;7.36;88.90
59417;BME280;45222;52.458;20.914;2023-04-16T01:45:06;100643.83;;;7.37;88.81
59417;BME280;45222;52.458;20.914;2023-04-16T01:48:51;100646.85;;;7.37;88.89
59417;BME280;45222;52.458;20.914;2023-04-16T01:52:38;100649.98;;;7.33;88.84
59417;BME280;45222;52.458;20.914;2023-04-16T01:56:23;100645.98;;;7.31;88.91
59417;BME280;45222;52.458;20.914;2023-04-16T02:00:09;100647.24;;;7.30;89.07
59417;BME280;45222;52.458;20.914;2023-04-16T02:03:54;100646.23;;;7.28;89.23
59417;BME280;45222;52.458;20.914;2023-04-16T02:07:40;100646.95;;;7.28;89.51
59417;BME280;45222;52.458;20.914;2023-04-16T02:11:25;100647.73;;;7.25;89.62
59417;BME280;45222;52.458;20.914;2023-04-16T02:15:11;100649.92;;;7.23;89.51
59417;BME280;45222;52.458;20.914;2023-04-16T02:18:56;100656.19;;;7.20;89.63
59417;BME280;45222;52.458;20.914;2023-04-16T02:22:41;100656.54;;;7.20;89.64
59417;BME280;45222;52.458;20.914;2023-04-16T02:26:27;100659.61;;;7.18;89.75
59417;BME280;45222;52.458;20.914;2023-04-16T02:30:13;100656.00;;;7.21;89.76
59417;BME280;45222;52.458;20.914;2023-04-16T02:33:58;100652.83;;;7.20;89.77
59417;BME280;45222;52.458;20.914;2023-04-16T02:37:44;100656.55;;;7.14;89.75
59417;BME280;45222;52.458;20.914;2023-04-16T02:41:29;100657.05;;;7.09;89.83
59417;BME280;45222;52.458;20.914;2023-04-16T02:45:15;100652.76;;;7.05;89.87
59417;BME280;45222;52.458;20.914;2023-04-16T02:49:00;100657.13;;;7.06;89.91
59417;BME280;45222;52.458;20.914;2023-04-16T02:52:45;100658.80;;;7.09;90.10
59417;BME280;45222;52.458;20.914;2023-04-16T02:56:30;100661.23;;;7.05;90.02
59417;BME280;45222;52.458;20.914;2023-04-16T03:00:15;100665.14;;;6.99;90.14
59417;BME280;45222;52.458;20.914;2023-04-16T03:04:00;100666.25;;;6.97;90.16
59417;BME280;45222;52.458;20.914;2023-04-16T03:07:45;100674.65;;;7.00;90.37
59417;BME280;45222;52.458;20.914;2023-04-16T03:11:30;100679.12;;;7.04;90.21
59417;BME280;45222;52.458;20.914;2023-04-16T03:15:15;100681.71;;;7.06;90.32
59417;BME280;45222;52.458;20.914;2023-04-16T03:19:00;100687.04;;;7.12;90.38
59417;BME280;45222;52.458;20.914;2023-04-16T03:22:46;100688.17;;;7.15;90.08
59417;BME280;45222;52.458;20.914;2023-04-16T03:26:31;100694.27;;;7.13;89.80
59417;BME280;45222;52.458;20.914;2023-04-16T03:30:16;100698.88;;;7.12;89.76
59417;BME280;45222;52.458;20.914;2023-04-16T03:34:01;100704.36;;;7.12;89.74
59417;BME280;45222;52.458;20.914;2023-04-16T03:37:46;100701.90;;;7.12;89.90
59417;BME280;45222;52.458;20.914;2023-04-16T03:41:31;100709.70;;;7.17;90.02
59417;BME280;45222;52.458;20.914;2023-04-16T03:45:17;100713.42;;;7.23;89.88
59417;BME280;45222;52.458;20.914;2023-04-16T03:49:02;100715.81;;;7.26;89.68
59417;BME280;45222;52.458;20.914;2023-04-16T03:52:47;100715.36;;;7.23;89.44
59417;BME280;45222;52.458;20.914;2023-04-16T03:56:32;100719.64;;;7.22;89.48
59417;BME280;45222;52.458;20.914;2023-04-16T04:00:17;100724.55;;;7.23;89.55
59417;BME280;45222;52.458;20.914;2023-04-16T04:04:02;100724.81;;;7.27;89.59
59417;BME280;45222;52.458;20.914;2023-04-16T04:07:48;100727.63;;;7.28;89.53
59417;BME280;45222;52.458;20.914;2023-04-16T04:11:33;100732.81;;;7.25;89.53
59417;BME280;45222;52.458;20.914;2023-04-16T04:15:18;100727.88;;;7.24;89.53
59417;BME280;45222;52.458;20.914;2023-04-16T04:19:03;100729.23;;;7.28;89.59
59417;BME280;45222;52.458;20.914;2023-04-16T04:22:49;100733.14;;;7.33;89.65
59417;BME280;45222;52.458;20.914;2023-04-16T04:26:34;100737.05;;;7.38;89.46
59417;BME280;45222;52.458;20.914;2023-04-16T04:30:19;100739.15;;;7.39;89.48
59417;BME280;45222;52.458;20.914;2023-04-16T04:34:05;100740.08;;;7.37;89.32
59417;BME280;45222;52.458;20.914;2023-04-16T04:37:50;100739.89;;;7.38;89.36
59417;BME280;45222;52.458;20.914;2023-04-16T04:41:35;100742.20;;;7.43;89.45
59417;BME280;45222;52.458;20.914;2023-04-16T04:45:20;100744.72;;;7.48;89.31
59417;BME280;45222;52.458;20.914;2023-04-16T04:49:08;100747.05;;;7.53;89.36
59417;BME280;45222;52.458;20.914;2023-04-16T04:52:53;100748.21;;;7.56;89.34
59417;BME280;45222;52.458;20.914;2023-04-16T04:56:38;100744.44;;;7.58;89.12
59417;BME280;45222;52.458;20.914;2023-04-16T05:00:24;100746.85;;;7.60;89.01
59417;BME280;45222;52.458;20.914;2023-04-16T05:04:09;100752.10;;;7.62;89.15
59417;BME280;45222;52.458;20.914;2023-04-16T05:07:54;100754.98;;;7.66;89.03
59417;BME280;45222;52.458;20.914;2023-04-16T05:11:39;100762.88;;;7.68;88.89
59417;BME280;45222;52.458;20.914;2023-04-16T05:15:24;100765.11;;;7.65;88.77
59417;BME280;45222;52.458;20.914;2023-04-16T05:19:09;100764.92;;;7.65;88.81
59417;BME280;45222;52.458;20.914;2023-04-16T05:22:54;100770.11;;;7.69;88.75
59417;BME280;45222;52.458;20.914;2023-04-16T05:26:39;100772.59;;;7.70;88.79
59417;BME280;45222;52.458;20.914;2023-04-16T05:30:24;100774.86;;;7.70;88.79
59417;BME280;45222;52.458;20.914;2023-04-16T05:34:09;100780.71;;;7.70;88.80
59417;BME280;45222;52.458;20.914;2023-04-16T05:37:55;100786.31;;;7.72;88.51
59417;BME280;45222;52.458;20.914;2023-04-16T05:41:40;100793.16;;;7.74;88.64
59417;BME280;45222;52.458;20.914;2023-04-16T05:45:25;100794.23;;;7.79;88.55
59417;BME280;45222;52.458;20.914;2023-04-16T05:49:10;100789.56;;;7.82;88.47
59417;BME280;45222;52.458;20.914;2023-04-16T05:52:55;100790.52;;;7.80;88.21
59417;BME280;45222;52.458;20.914;2023-04-16T05:56:40;100794.76;;;7.79;88.23
59417;BME280;45222;52.458;20.914;2023-04-16T06:00:25;100793.60;;;7.83;88.22
59417;BME280;45222;52.458;20.914;2023-04-16T06:04:11;100795.91;;;7.88;88.16
59417;BME280;45222;52.458;20.914;2023-04-16T06:07:56;100803.98;;;7.97;88.03
59417;BME280;45222;52.458;20.914;2023-04-16T06:11:41;100805.48;;;8.05;88.03
59417;BME280;45222;52.458;20.914;2023-04-16T06:15:26;100808.34;;;8.10;87.53
59417;BME280;45222;52.458;20.914;2023-04-16T06:19:11;100809.08;;;8.15;87.38
59417;BME280;45222;52.458;20.914;2023-04-16T06:22:57;100806.88;;;8.18;87.24
59417;BME280;45222;52.458;20.914;2023-04-16T06:26:42;100811.47;;;8.24;87.18
59417;BME280;45222;52.458;20.914;2023-04-16T06:30:27;100817.97;;;8.31;87.18
59417;BME280;45222;52.458;20.914;2023-04-16T06:34:12;100822.30;;;8.40;87.03
59417;BME280;45222;52.458;20.914;2023-04-16T06:37:58;100825.17;;;8.44;86.48
59417;BME280;45222;52.458;20.914;2023-04-16T06:41:43;100823.53;;;8.45;86.15
59417;BME280;45222;52.458;20.914;2023-04-16T06:45:28;100823.21;;;8.44;86.02
59417;BME280;45222;52.458;20.914;2023-04-16T06:49:13;100825.31;;;8.46;85.90
59417;BME280;45222;52.458;20.914;2023-04-16T06:52:58;100823.71;;;8.46;85.50
59417;BME280;45222;52.458;20.914;2023-04-16T06:56:43;100824.80;;;8.50;85.75
59417;BME280;45222;52.458;20.914;2023-04-16T07:00:29;100823.77;;;8.50;85.23
59417;BME280;45222;52.458;20.914;2023-04-16T07:04:14;100828.81;;;8.47;85.35
59417;BME280;45222;52.458;20.914;2023-04-16T07:07:59;100831.53;;;8.50;85.37
59417;BME280;45222;52.458;20.914;2023-04-16T07:11:45;100832.50;;;8.60;85.62
59417;BME280;45222;52.458;20.914;2023-04-16T07:15:32;100834.17;;;8.68;85.23
59417;BME280;45222;52.458;20.914;2023-04-16T07:19:17;100838.45;;;8.78;84.99
59417;BME280;45222;52.458;20.914;2023-04-16T07:23:02;100833.82;;;8.84;84.69
59417;BME280;45222;52.458;20.914;2023-04-16T07:26:47;100833.02;;;8.93;83.99
59417;BME280;45222;52.458;20.914;2023-04-16T07:30:33;100835.62;;;8.99;83.33
59417;BME280;45222;52.458;20.914;2023-04-16T07:34:18;100830.38;;;9.02;82.90
59417;BME280;45222;52.458;20.914;2023-04-16T07:38:03;100834.83;;;9.07;83.38
59417;BME280;45222;52.458;20.914;2023-04-16T07:41:49;100835.92;;;9.16;82.99
59417;BME280;45222;52.458;20.914;2023-04-16T07:45:34;100845.84;;;9.17;82.14
59417;BME280;45222;52.458;20.914;2023-04-16T07:49:20;100844.77;;;9.11;82.18
59417;BME280;45222;52.458;20.914;2023-04-16T07:53:07;100853.04;;;9.13;82.31
59417;BME280;45222;52.458;20.914;2023-04-16T07:56:52;100862.39;;;9.20;82.96
59417;BME280;45222;52.458;20.914;2023-04-16T08:00:37;100862.94;;;9.25;82.31
59417;BME280;45222;52.458;20.914;2023-04-16T08:04:22;100870.92;;;9.20;82.13
59417;BME280;45222;52.458;20.914;2023-04-16T08:08:08;100872.81;;;9.12;82.49
59417;BME280;45222;52.458;20.914;2023-04-16T08:11:53;100874.63;;;9.05;82.31
59417;BME280;45222;52.458;20.914;2023-04-16T08:15:38;100878.79;;;9.03;82.53
59417;BME280;45222;52.458;20.914;2023-04-16T08:19:24;100880.48;;;9.05;82.83
59417;BME280;45222;52.458;20.914;2023-04-16T08:23:09;100886.16;;;9.15;83.10
59417;BME280;45222;52.458;20.914;2023-04-16T08:26:54;100887.90;;;9.27;82.87
59417;BME280;45222;52.458;20.914;2023-04-16T08:30:39;100891.02;;;9.34;82.26
59417;BME280;45222;52.458;20.914;2023-04-16T08:34:25;100896.10;;;9.36;82.12
59417;BME280;45222;52.458;20.914;2023-04-16T08:38:10;100899.78;;;9.43;82.05
59417;BME280;45222;52.458;20.914;2023-04-16T08:41:56;100900.67;;;9.53;82.16
59417;BME280;45222;52.458;20.914;2023-04-16T08:45:43;100907.95;;;9.57;81.61
59417;BME280;45222;52.458;20.914;2023-04-16T08:49:34;100918.44;;;9.57;81.31
59417;BME280;45222;52.458;20.914;2023-04-16T08:53:21;100922.84;;;9.58;80.87
59417;BME280;45222;52.458;20.914;2023-04-16T08:57:10;100931.59;;;9.57;80.81
59417;BME280;45222;52.458;20.914;2023-04-16T09:00:56;100933.70;;;9.57;80.53
59417;BME280;45222;52.458;20.914;2023-04-16T09:04:41;100936.41;;;9.57;80.82
59417;BME280;45222;52.458;20.914;2023-04-16T09:08:29;100934.09;;;9.57;80.65
59417;BME280;45222;52.458;20.914;2023-04-16T09:12:15;100932.13;;;9.57;81.00
59417;BME280;45222;52.458;20.914;2023-04-16T09:16:02;100935.94;;;9.59;80.45
59417;BME280;45222;52.458;20.914;2023-04-16T09:19:47;100934.84;;;9.60;80.52
59417;BME280;45222;52.458;20.914;2023-04-16T09:23:33;100938.86;;;9.62;80.34
59417;BME280;45222;52.458;20.914;2023-04-16T09:27:18;100945.29;;;9.66;80.60
59417;BME280;45222;52.458;20.914;2023-04-16T09:31:14;100944.64;;;9.70;80.65
59417;BME280;45222;52.458;20.914;2023-04-16T09:35:00;100947.15;;;9.74;80.76
59417;BME280;45222;52.458;20.914;2023-04-16T09:38:46;100946.10;;;9.83;80.47
59417;BME280;45222;52.458;20.914;2023-04-16T09:42:33;100949.33;;;9.93;80.26
59417;BME280;45222;52.458;20.914;2023-04-16T09:48:31;100954.02;;;10.05;79.10
59417;BME280;45222;52.458;20.914;2023-04-16T09:52:21;100957.44;;;10.13;78.76
59417;BME280;45222;52.458;20.914;2023-04-16T09:56:08;100957.72;;;10.30;78.17
59417;BME280;45222;52.458;20.914;2023-04-16T09:59:54;100955.63;;;10.43;77.68
59417;BME280;45222;52.458;20.914;2023-04-16T10:03:48;100957.39;;;10.54;76.66
59417;BME280;45222;52.458;20.914;2023-04-16T10:07:35;100962.31;;;10.59;75.61
59417;BME280;45222;52.458;20.914;2023-04-16T10:11:27;100967.33;;;10.59;75.59
59417;BME280;45222;52.458;20.914;2023-04-16T10:15:17;100962.63;;;10.70;75.73
59417;BME280;45222;52.458;20.914;2023-04-16T10:19:02;100962.45;;;10.79;75.08
59417;BME280;45222;52.458;20.914;2023-04-16T10:22:49;100961.16;;;10.88;75.36
59417;BME280;45222;52.458;20.914;2023-04-16T10:26:34;100959.95;;;11.01;74.40
59417;BME280;45222;52.458;20.914;2023-04-16T10:30:23;100964.46;;;11.17;74.40
59417;BME280;45222;52.458;20.914;2023-04-16T10:34:08;100967.73;;;11.37;74.19
59417;BME280;45222;52.458;20.914;2023-04-16T10:37:56;100965.20;;;11.55;73.38
59417;BME280;45222;52.458;20.914;2023-04-16T10:41:43;100966.15;;;11.74;73.14
59417;BME280;45222;52.458;20.914;2023-04-16T10:45:37;100971.20;;;11.85;72.87
59417;BME280;45222;52.458;20.914;2023-04-16T10:49:25;100975.40;;;11.98;72.08
59417;BME280;45222;52.458;20.914;2023-04-16T10:53:21;100979.73;;;12.10;71.57
59417;BME280;45222;52.458;20.914;2023-04-16T10:57:09;100984.17;;;12.22;71.85
59417;BME280;45222;52.458;20.914;2023-04-16T11:00:59;100984.31;;;12.31;71.14
59417;BME280;45222;52.458;20.914;2023-04-16T11:04:45;100982.55;;;12.39;70.35
59417;BME280;45222;52.458;20.914;2023-04-16T11:08:31;100990.48;;;12.44;70.17
59417;BME280;45222;52.458;20.914;2023-04-16T11:12:18;100989.48;;;12.39;70.07
59417;BME280;45222;52.458;20.914;2023-04-16T11:16:04;100986.24;;;12.36;69.93
59417;BME280;45222;52.458;20.914;2023-04-16T11:19:50;100989.08;;;12.40;69.75
59417;BME280;45222;52.458;20.914;2023-04-16T11:23:47;100989.98;;;12.44;69.69
59417;BME280;45222;52.458;20.914;2023-04-16T11:27:32;100991.25;;;12.51;69.66
59417;BME280;45222;52.458;20.914;2023-04-16T11:31:19;100994.88;;;12.50;69.02
59417;BME280;45222;52.458;20.914;2023-04-16T11:35:13;100995.50;;;12.48;69.17
59417;BME280;45222;52.458;20.914;2023-04-16T11:39:02;100998.75;;;12.43;69.17
59417;BME280;45222;52.458;20.914;2023-04-16T11:42:47;100996.70;;;12.33;69.44
59417;BME280;45222;52.458;20.914;2023-04-16T11:46:39;101001.51;;;12.30;69.81
59417;BME280;45222;52.458;20.914;2023-04-16T11:50:26;100998.66;;;12.26;69.58
59417;BME280;45222;52.458;20.914;2023-04-16T11:54:19;100998.05;;;12.34;70.30
59417;BME280;45222;52.458;20.914;2023-04-16T11:58:12;100996.70;;;12.48;70.09
59417;BME280;45222;52.458;20.914;2023-04-16T12:01:59;100998.23;;;12.62;69.60
59417;BME280;45222;52.458;20.914;2023-04-16T12:05:45;101004.08;;;12.70;69.06
59417;BME280;45222;52.458;20.914;2023-04-16T12:09:30;101005.34;;;12.70;68.86
59417;BME280;45222;52.458;20.914;2023-04-16T12:13:17;101008.09;;;12.73;68.37
59417;BME280;45222;52.458;20.914;2023-04-16T12:17:23;101002.38;;;12.80;68.60
59417;BME280;45222;52.458;20.914;2023-04-16T12:21:14;101002.09;;;12.90;68.31
59417;BME280;45222;52.458;20.914;2023-04-16T12:25:01;100999.98;;;12.93;67.83
59417;BME280;45222;52.458;20.914;2023-04-16T12:28:47;100995.98;;;12.94;67.54
59417;BME280;45222;52.458;20.914;2023-04-16T12:32:32;100996.77;;;12.74;67.17
59417;BME280;45222;52.458;20.914;2023-04-16T12:36:19;100993.97;;;12.62;67.81
59417;BME280;45222;52.458;20.914;2023-04-16T12:40:06;100990.02;;;12.74;68.46
59417;BME280;45222;52.458;20.914;2023-04-16T12:43:54;100987.62;;;12.90;67.88
59417;BME280;45222;52.458;20.914;2023-04-16T12:47:45;100985.23;;;12.84;66.44
59417;BME280;45222;52.458;20.914;2023-04-16T12:51:31;100982.45;;;12.79;66.92
59417;BME280;45222;52.458;20.914;2023-04-16T12:55:17;100983.23;;;12.85;66.64
59417;BME280;45222;52.458;20.914;2023-04-16T12:59:03;100986.14;;;12.91;67.26
59417;BME280;45222;52.458;20.914;2023-04-16T13:02:48;100984.23;;;13.12;66.97
59417;BME280;45222;52.458;20.914;2023-04-16T13:06:33;100982.70;;;13.54;66.02
59417;BME280;45222;52.458;20.914;2023-04-16T13:10:21;100973.02;;;14.00;64.46
59417;BME280;45222;52.458;20.914;2023-04-16T13:14:06;100971.44;;;14.20;62.46
59417;BME280;45222;52.458;20.914;2023-04-16T13:17:52;100971.40;;;14.40;62.52
59417;BME280;45222;52.458;20.914;2023-04-16T13:21:37;100969.30;;;14.32;62.48
59417;BME280;45222;52.458;20.914;2023-04-16T13:25:22;100968.88;;;14.30;62.42
59417;BME280;45222;52.458;20.914;2023-04-16T13:29:07;100967.23;;;14.41;61.20
59417;BME280;45222;52.458;20.914;2023-04-16T13:32:52;100964.38;;;14.21;61.16
59417;BME280;45222;52.458;20.914;2023-04-16T13:36:38;100968.31;;;14.24;61.04
59417;BME280;45222;52.458;20.914;2023-04-16T13:40:23;100971.63;;;14.22;60.25
59417;BME280;45222;52.458;20.914;2023-04-16T13:44:09;100980.98;;;14.08;59.86
59417;BME280;45222;52.458;20.914;2023-04-16T13:47:54;100980.77;;;13.64;60.78
59417;BME280;45222;52.458;20.914;2023-04-16T13:51:41;100989.35;;;13.31;61.96
59417;BME280;45222;52.458;20.914;2023-04-16T13:55:27;100991.08;;;13.14;62.67
59417;BME280;45222;52.458;20.914;2023-04-16T13:59:12;100988.50;;;13.05;63.30
59417;BME280;45222;52.458;20.914;2023-04-16T14:02:59;100990.56;;;13.07;63.94
59417;BME280;45222;52.458;20.914;2023-04-16T14:06:45;100990.94;;;13.24;64.30
59417;BME280;45222;52.458;20.914;2023-04-16T14:10:30;100991.34;;;13.24;63.83
59417;BME280;45222;52.458;20.914;2023-04-16T14:14:16;100989.34;;;13.21;63.75
59417;BME280;45222;52.458;20.914;2023-04-16T14:18:01;100988.14;;;13.24;64.41
59417;BME280;45222;52.458;20.914;2023-04-16T14:21:47;100993.07;;;13.14;64.93
59417;BME280;45222;52.458;20.914;2023-04-16T14:25:33;100997.56;;;13.21;64.82
59417;BME280;45222;52.458;20.914;2023-04-16T14:29:18;100991.86;;;13.42;64.39
59417;BME280;45222;52.458;20.914;2023-04-16T14:33:05;100995.60;;;13.43;63.73
59417;BME280;45222;52.458;20.914;2023-04-16T14:36:51;100997.05;;;13.24;64.43
59417;BME280;45222;52.458;20.914;2023-04-16T14:40:37;100995.69;;;13.37;64.80
59417;BME280;45222;52.458;20.914;2023-04-16T14:44:22;100990.17;;;13.55;64.08
59417;BME280;45222;52.458;20.914;2023-04-16T14:48:07;100994.50;;;13.68;63.73
59417;BME280;45222;52.458;20.914;2023-04-16T14:51:53;100992.28;;;13.80;63.28
59417;BME280;45222;52.458;20.914;2023-04-16T14:55:40;100993.86;;;13.74;62.77
59417;BME280;45222;52.458;20.914;2023-04-16T14:59:26;100997.62;;;13.66;62.97
59417;BME280;45222;52.458;20.914;2023-04-16T15:03:11;100999.15;;;13.58;62.41
59417;BME280;45222;52.458;20.914;2023-04-16T15:06:57;101001.76;;;13.49;62.97
59417;BME280;45222;52.458;20.914;2023-04-16T15:10:42;101006.54;;;13.50;63.28
59417;BME280;45222;52.458;20.914;2023-04-16T15:14:29;101007.78;;;13.53;63.38
59417;BME280;45222;52.458;20.914;2023-04-16T15:18:15;101005.93;;;13.47;63.05
59417;BME280;45222;52.458;20.914;2023-04-16T15:22:00;101003.25;;;13.36;63.10
59417;BME280;45222;52.458;20.914;2023-04-16T15:25:46;101005.63;;;13.20;63.85
59417;BME280;45222;52.458;20.914;2023-04-16T15:29:31;101004.21;;;13.09;64.67
59417;BME280;45222;52.458;20.914;2023-04-16T15:33:17;101013.55;;;12.93;65.32
59417;BME280;45222;52.458;20.914;2023-04-16T15:37:06;101014.82;;;12.77;65.63
59417;BME280;45222;52.458;20.914;2023-04-16T15:40:53;101015.82;;;12.79;66.22
59417;BME280;45222;52.458;20.914;2023-04-16T15:44:38;101019.35;;;12.83;65.59
59417;BME280;45222;52.458;20.914;2023-04-16T15:48:23;101022.08;;;12.79;65.73
59417;BME280;45222;52.458;20.914;2023-04-16T15:52:09;101022.90;;;12.72;65.82
59417;BME280;45222;52.458;20.914;2023-04-16T15:55:55;101022.10;;;12.63;65.05
59417;BME280;45222;52.458;20.914;2023-04-16T15:59:40;101026.79;;;12.42;65.07
59417;BME280;45222;52.458;20.914;2023-04-16T16:03:25;101027.39;;;12.25;66.12
59417;BME280;45222;52.458;20.914;2023-04-16T16:07:11;101027.36;;;12.14;66.55
59417;BME280;45222;52.458;20.914;2023-04-16T16:10:58;101027.53;;;12.01;67.43
59417;BME280;45222;52.458;20.914;2023-04-16T16:14:44;101034.63;;;11.89;67.78
59417;BME280;45222;52.458;20.914;2023-04-16T16:18:29;101040.46;;;11.82;68.43
59417;BME280;45222;52.458;20.914;2023-04-16T16:22:14;101042.91;;;11.78;68.89
59417;BME280;45222;52.458;20.914;2023-04-16T16:26:04;101049.85;;;11.70;69.39
59417;BME280;45222;52.458;20.914;2023-04-16T16:29:49;101053.33;;;11.64;69.67
59417;BME280;45222;52.458;20.914;2023-04-16T16:33:35;101059.86;;;11.57;69.95
59417;BME280;45222;52.458;20.914;2023-04-16T16:37:20;101064.38;;;11.43;69.97
59417;BME280;45222;52.458;20.914;2023-04-16T16:41:06;101070.83;;;11.28;70.64
59417;BME280;45222;52.458;20.914;2023-04-16T16:44:51;101073.98;;;11.16;71.10
59417;BME280;45222;52.458;20.914;2023-04-16T16:48:37;101076.48;;;11.11;71.33
59417;BME280;45222;52.458;20.914;2023-04-16T16:52:24;101080.58;;;11.02;71.01
59417;BME280;45222;52.458;20.914;2023-04-16T16:56:10;101082.89;;;10.97;71.20
59417;BME280;45222;52.458;20.914;2023-04-16T16:59:55;101083.52;;;10.90;71.47
59417;BME280;45222;52.458;20.914;2023-04-16T17:03:41;101086.39;;;10.75;71.80
59417;BME280;45222;52.458;20.914;2023-04-16T17:07:26;101086.95;;;10.56;72.59
59417;BME280;45222;52.458;20.914;2023-04-16T17:11:11;101083.65;;;10.39;73.03
59417;BME280;45222;52.458;20.914;2023-04-16T17:14:57;101091.02;;;10.21;73.72
59417;BME280;45222;52.458;20.914;2023-04-16T17:18:42;101099.95;;;10.04;74.08
59417;BME280;45222;52.458;20.914;2023-04-16T17:22:27;101104.26;;;9.92;74.51
59417;BME280;45222;52.458;20.914;2023-04-16T17:26:13;101110.01;;;9.80;74.96
59417;BME280;45222;52.458;20.914;2023-04-16T17:29:58;101110.30;;;9.65;75.35
59417;BME280;45222;52.458;20.914;2023-04-16T17:33:45;101112.81;;;9.54;76.10
59417;BME280;45222;52.458;20.914;2023-04-16T17:37:30;101115.27;;;9.44;76.34
59417;BME280;45222;52.458;20.914;2023-04-16T17:41:16;101125.36;;;9.33;76.59
59417;BME280;45222;52.458;20.914;2023-04-16T17:45:01;101127.08;;;9.23;77.00
59417;BME280;45222;52.458;20.914;2023-04-16T17:48:46;101127.80;;;9.17;76.99
59417;BME280;45222;52.458;20.914;2023-04-16T17:52:32;101135.27;;;9.11;77.49
59417;BME280;45222;52.458;20.914;2023-04-16T17:56:17;101134.39;;;9.05;77.74
59417;BME280;45222;52.458;20.914;2023-04-16T18:00:07;101139.20;;;8.98;77.96
59417;BME280;45222;52.458;20.914;2023-04-16T18:03:54;101138.37;;;8.96;78.19
59417;BME280;45222;52.458;20.914;2023-04-16T18:07:39;101135.77;;;8.93;78.42
59417;BME280;45222;52.458;20.914;2023-04-16T18:11:24;101135.55;;;8.89;78.79
59417;BME280;45222;52.458;20.914;2023-04-16T18:15:11;101145.64;;;8.84;79.20
59417;BME280;45222;52.458;20.914;2023-04-16T18:18:57;101152.54;;;8.79;78.86
59417;BME280;45222;52.458;20.914;2023-04-16T18:22:42;101155.34;;;8.73;79.19
59417;BME280;45222;52.458;20.914;2023-04-16T18:26:27;101159.73;;;8.68;79.27
59417;BME280;45222;52.458;20.914;2023-04-16T18:30:14;101162.70;;;8.63;79.55
59417;BME280;45222;52.458;20.914;2023-04-16T18:34:00;101164.89;;;8.61;79.95
59417;BME280;45222;52.458;20.914;2023-04-16T18:37:46;101170.44;;;8.59;79.92
59417;BME280;45222;52.458;20.914;2023-04-16T18:41:31;101169.45;;;8.56;80.08
59417;BME280;45222;52.458;20.914;2023-04-16T18:45:17;101166.68;;;8.54;80.27
59417;BME280;45222;52.458;20.914;2023-04-16T18:49:03;101162.13;;;8.51;80.32
59417;BME280;45222;52.458;20.914;2023-04-16T18:52:49;101165.58;;;8.48;80.52
59417;BME280;45222;52.458;20.914;2023-04-16T18:56:36;101166.38;;;8.44;80.62
59417;BME280;45222;52.458;20.914;2023-04-16T19:00:24;101165.74;;;8.41;80.90
59417;BME280;45222;52.458;20.914;2023-04-16T19:04:10;101166.71;;;8.38;80.73
59417;BME280;45222;52.458;20.914;2023-04-16T19:07:56;101165.82;;;8.32;80.92
59417;BME280;45222;52.458;20.914;2023-04-16T19:11:42;101160.74;;;8.22;81.30
59417;BME280;45222;52.458;20.914;2023-04-16T19:15:27;101162.35;;;8.15;81.28
59417;BME280;45222;52.458;20.914;2023-04-16T19:19:13;101165.81;;;8.12;81.32
59417;BME280;45222;52.458;20.914;2023-04-16T19:22:59;101170.74;;;8.13;81.38
59417;BME280;45222;52.458;20.914;2023-04-16T19:26:44;101173.22;;;8.13;81.23
59417;BME280;45222;52.458;20.914;2023-04-16T19:30:29;101171.81;;;8.05;81.40
59417;BME280;45222;52.458;20.914;2023-04-16T19:34:15;101164.95;;;7.96;81.52
59417;BME280;45222;52.458;20.914;2023-04-16T19:38:00;101168.35;;;7.88;81.55
59417;BME280;45222;52.458;20.914;2023-04-16T19:41:46;101169.40;;;7.81;81.71